sensor_id;sensor_type;location;lat;lon;timestamp;P1;P2;P0
56069;PMS5003;41944;52.078;-0.058;2023-01-16T00:01:30;8;6;
56069;PMS5003;41944;52.078;-0.058;2023-01-16T00:03:56;5;5;
56069;PMS5003;41944;52.078;-0.058;2023-01-16T00:06:23;14;10;
56069;PMS5003;41944;52.078;-0.058;2023-01-16T00:08:50;10;7;
56069;PMS5003;41944;52.078;-0.058;2023-01-16T00:11:17;9;6;
56069;PMS5003;41944;52.078;-0.058;2023-01-16T00:13:44;7;4;
56069;PMS5003;41944;52.078;-0.058;2023-01-16T00:16:11;13;9;
56069;PMS5003;41944;52.078;-0.058;2023-01-16T00:18:38;7;6;
56069;PMS5003;41944;52.078;-0.058;2023-01-16T00:21:05;7;6;
56069;PMS5003;41944;52.078;-0.058;2023-01-16T00:23:32;16;8;
56069;PMS5003;41944;52.078;-0.058;2023-01-16T00:25:59;11;5;
56069;PMS5003;41944;52.078;-0.058;2023-01-16T00:28:26;9;7;
56069;PMS5003;41944;52.078;-0.058;2023-01-16T00:30:54;14;10;
56069;PMS5003;41944;52.078;-0.058;2023-01-16T00:33:21;8;6;
56069;PMS5003;41944;52.078;-0.058;2023-01-16T00:35:48;11;7;
56069;PMS5003;41944;52.078;-0.058;2023-01-16T00:38:15;8;6;
56069;PMS5003;41944;52.078;-0.058;2023-01-16T00:40:42;8;8;
56069;PMS5003;41944;52.078;-0.058;2023-01-16T00:43:09;9;8;
56069;PMS5003;41944;52.078;-0.058;2023-01-16T00:45:36;11;8;
56069;PMS5003;41944;52.078;-0.058;2023-01-16T00:48:03;11;10;
56069;PMS5003;41944;52.078;-0.058;2023-01-16T00:50:30;10;8;
56069;PMS5003;41944;52.078;-0.058;2023-01-16T00:52:57;8;6;
56069;PMS5003;41944;52.078;-0.058;2023-01-16T00:55:25;11;10;
56069;PMS5003;41944;52.078;-0.058;2023-01-16T00:57:52;10;7;
56069;PMS5003;41944;52.078;-0.058;2023-01-16T01:00:19;8;7;
56069;PMS5003;41944;52.078;-0.058;2023-01-16T01:02:47;10;7;
56069;PMS5003;41944;52.078;-0.058;2023-01-16T01:05:15;13;10;
56069;PMS5003;41944;52.078;-0.058;2023-01-16T01:07:42;10;9;
56069;PMS5003;41944;52.078;-0.058;2023-01-16T01:10:09;10;8;
56069;PMS5003;41944;52.078;-0.058;2023-01-16T01:12:36;13;9;
56069;PMS5003;41944;52.078;-0.058;2023-01-16T01:15:04;8;7;
56069;PMS5003;41944;52.078;-0.058;2023-01-16T01:17:32;10;7;
56069;PMS5003;41944;52.078;-0.058;2023-01-16T01:19:59;12;8;
56069;PMS5003;41944;52.078;-0.058;2023-01-16T01:22:26;11;8;
56069;PMS5003;41944;52.078;-0.058;2023-01-16T01:24:53;13;8;
56069;PMS5003;41944;52.078;-0.058;2023-01-16T01:27:20;10;9;
56069;PMS5003;41944;52.078;-0.058;2023-01-16T01:29:48;14;11;
56069;PMS5003;41944;52.078;-0.058;2023-01-16T01:32:15;10;8;
56069;PMS5003;41944;52.078;-0.058;2023-01-16T01:34:42;12;10;
56069;PMS5003;41944;52.078;-0.058;2023-01-16T01:37:09;9;6;
56069;PMS5003;41944;52.078;-0.058;2023-01-16T01:39:36;19;11;
56069;PMS5003;41944;52.078;-0.058;2023-01-16T01:42:03;8;5;
56069;PMS5003;41944;52.078;-0.058;2023-01-16T01:45:05;14;9;
56069;PMS5003;41944;52.078;-0.058;2023-01-16T01:47:38;10;9;
56069;PMS5003;41944;52.078;-0.058;2023-01-16T01:50:11;9;9;
56069;PMS5003;41944;52.078;-0.058;2023-01-16T01:52:44;13;10;
56069;PMS5003;41944;52.078;-0.058;2023-01-16T01:55:11;11;8;
56069;PMS5003;41944;52.078;-0.058;2023-01-16T01:57:42;10;9;
56069;PMS5003;41944;52.078;-0.058;2023-01-16T02:00:14;9;4;
56069;PMS5003;41944;52.078;-0.058;2023-01-16T02:02:45;11;7;
56069;PMS5003;41944;52.078;-0.058;2023-01-16T02:05:16;7;7;
56069;PMS5003;41944;52.078;-0.058;2023-01-16T02:07:47;12;10;
56069;PMS5003;41944;52.078;-0.058;2023-01-16T02:10:18;8;7;
56069;PMS5003;41944;52.078;-0.058;2023-01-16T02:12:52;12;7;
56069;PMS5003;41944;52.078;-0.058;2023-01-16T02:15:20;8;6;
56069;PMS5003;41944;52.078;-0.058;2023-01-16T02:17:49;7;7;
56069;PMS5003;41944;52.078;-0.058;2023-01-16T02:20:18;10;7;
56069;PMS5003;41944;52.078;-0.058;2023-01-16T02:22:56;11;7;
56069;PMS5003;41944;52.078;-0.058;2023-01-16T02:25:51;9;7;
56069;PMS5003;41944;52.078;-0.058;2023-01-16T02:28:43;9;6;
56069;PMS5003;41944;52.078;-0.058;2023-01-16T02:31:31;10;7;
56069;PMS5003;41944;52.078;-0.058;2023-01-16T02:34:11;10;6;
56069;PMS5003;41944;52.078;-0.058;2023-01-16T02:36:53;9;7;
56069;PMS5003;41944;52.078;-0.058;2023-01-16T02:39:32;8;7;
56069;PMS5003;41944;52.078;-0.058;2023-01-16T02:42:08;13;10;
56069;PMS5003;41944;52.078;-0.058;2023-01-16T02:44:42;8;5;
56069;PMS5003;41944;52.078;-0.058;2023-01-16T02:47:16;11;5;
56069;PMS5003;41944;52.078;-0.058;2023-01-16T02:49:53;12;7;
56069;PMS5003;41944;52.078;-0.058;2023-01-16T02:52:29;7;7;
56069;PMS5003;41944;52.078;-0.058;2023-01-16T02:55:03;4;4;
56069;PMS5003;41944;52.078;-0.058;2023-01-16T02:57:34;9;6;
56069;PMS5003;41944;52.078;-0.058;2023-01-16T03:00:06;10;5;
56069;PMS5003;41944;52.078;-0.058;2023-01-16T03:02:36;9;8;
56069;PMS5003;41944;52.078;-0.058;2023-01-16T03:05:03;8;5;
56069;PMS5003;41944;52.078;-0.058;2023-01-16T03:07:35;10;8;
56069;PMS5003;41944;52.078;-0.058;2023-01-16T03:10:18;16;8;
56069;PMS5003;41944;52.078;-0.058;2023-01-16T03:12:58;7;7;
56069;PMS5003;41944;52.078;-0.058;2023-01-16T03:15:39;7;7;
56069;PMS5003;41944;52.078;-0.058;2023-01-16T03:18:18;8;6;
56069;PMS5003;41944;52.078;-0.058;2023-01-16T03:20:59;7;6;
56069;PMS5003;41944;52.078;-0.058;2023-01-16T03:23:35;10;7;
56069;PMS5003;41944;52.078;-0.058;2023-01-16T03:26:09;7;7;
56069;PMS5003;41944;52.078;-0.058;2023-01-16T03:28:45;10;8;
56069;PMS5003;41944;52.078;-0.058;2023-01-16T03:31:24;6;6;
56069;PMS5003;41944;52.078;-0.058;2023-01-16T03:33:58;8;8;
56069;PMS5003;41944;52.078;-0.058;2023-01-16T03:36:32;8;5;
56069;PMS5003;41944;52.078;-0.058;2023-01-16T03:39:05;11;6;
56069;PMS5003;41944;52.078;-0.058;2023-01-16T03:41:35;6;6;
56069;PMS5003;41944;52.078;-0.058;2023-01-16T03:44:07;12;6;
56069;PMS5003;41944;52.078;-0.058;2023-01-16T03:46:42;7;7;
56069;PMS5003;41944;52.078;-0.058;2023-01-16T03:49:15;8;6;
56069;PMS5003;41944;52.078;-0.058;2023-01-16T03:51:47;7;4;
56069;PMS5003;41944;52.078;-0.058;2023-01-16T03:54:21;9;6;
56069;PMS5003;41944;52.078;-0.058;2023-01-16T03:56:59;9;6;
56069;PMS5003;41944;52.078;-0.058;2023-01-16T03:59:33;7;5;
56069;PMS5003;41944;52.078;-0.058;2023-01-16T04:02:03;6;6;
56069;PMS5003;41944;52.078;-0.058;2023-01-16T04:04:36;8;5;
56069;PMS5003;41944;52.078;-0.058;2023-01-16T04:07:09;8;7;
56069;PMS5003;41944;52.078;-0.058;2023-01-16T04:09:41;12;5;
56069;PMS5003;41944;52.078;-0.058;2023-01-16T04:12:11;8;7;
56069;PMS5003;41944;52.078;-0.058;2023-01-16T04:14:42;12;9;
56069;PMS5003;41944;52.078;-0.058;2023-01-16T04:17:11;12;8;
56069;PMS5003;41944;52.078;-0.058;2023-01-16T04:19:38;11;6;
56069;PMS5003;41944;52.078;-0.058;2023-01-16T04:22:05;8;5;
56069;PMS5003;41944;52.078;-0.058;2023-01-16T04:24:34;10;7;
56069;PMS5003;41944;52.078;-0.058;2023-01-16T04:27:02;11;8;
56069;PMS5003;41944;52.078;-0.058;2023-01-16T04:29:29;10;7;
56069;PMS5003;41944;52.078;-0.058;2023-01-16T04:31:56;10;7;
56069;PMS5003;41944;52.078;-0.058;2023-01-16T04:34:23;5;5;
56069;PMS5003;41944;52.078;-0.058;2023-01-16T04:36:50;5;5;
56069;PMS5003;41944;52.078;-0.058;2023-01-16T04:39:17;9;6;
56069;PMS5003;41944;52.078;-0.058;2023-01-16T04:41:44;10;7;
56069;PMS5003;41944;52.078;-0.058;2023-01-16T04:44:10;6;6;
56069;PMS5003;41944;52.078;-0.058;2023-01-16T04:46:37;6;6;
56069;PMS5003;41944;52.078;-0.058;2023-01-16T04:49:05;12;8;
56069;PMS5003;41944;52.078;-0.058;2023-01-16T04:51:32;10;8;
56069;PMS5003;41944;52.078;-0.058;2023-01-16T04:53:59;8;5;
56069;PMS5003;41944;52.078;-0.058;2023-01-16T04:56:26;10;6;
56069;PMS5003;41944;52.078;-0.058;2023-01-16T04:58:54;15;8;
56069;PMS5003;41944;52.078;-0.058;2023-01-16T05:01:22;8;8;
56069;PMS5003;41944;52.078;-0.058;2023-01-16T05:03:50;8;6;
56069;PMS5003;41944;52.078;-0.058;2023-01-16T05:06:18;7;7;
56069;PMS5003;41944;52.078;-0.058;2023-01-16T05:08:44;10;8;
56069;PMS5003;41944;52.078;-0.058;2023-01-16T05:11:12;6;6;
56069;PMS5003;41944;52.078;-0.058;2023-01-16T05:13:38;8;8;
56069;PMS5003;41944;52.078;-0.058;2023-01-16T05:16:06;7;6;
56069;PMS5003;41944;52.078;-0.058;2023-01-16T05:18:33;10;7;
56069;PMS5003;41944;52.078;-0.058;2023-01-16T05:21:00;8;7;
56069;PMS5003;41944;52.078;-0.058;2023-01-16T05:23:28;10;8;
56069;PMS5003;41944;52.078;-0.058;2023-01-16T05:25:56;9;7;
56069;PMS5003;41944;52.078;-0.058;2023-01-16T05:28:22;9;6;
56069;PMS5003;41944;52.078;-0.058;2023-01-16T05:30:49;10;7;
56069;PMS5003;41944;52.078;-0.058;2023-01-16T05:33:16;11;7;
56069;PMS5003;41944;52.078;-0.058;2023-01-16T05:35:44;9;9;
56069;PMS5003;41944;52.078;-0.058;2023-01-16T05:38:11;8;6;
56069;PMS5003;41944;52.078;-0.058;2023-01-16T05:40:38;12;7;
56069;PMS5003;41944;52.078;-0.058;2023-01-16T05:43:05;9;7;
56069;PMS5003;41944;52.078;-0.058;2023-01-16T05:45:32;10;10;
56069;PMS5003;41944;52.078;-0.058;2023-01-16T05:47:59;16;12;
56069;PMS5003;41944;52.078;-0.058;2023-01-16T05:50:26;9;7;
56069;PMS5003;41944;52.078;-0.058;2023-01-16T05:52:54;13;10;
56069;PMS5003;41944;52.078;-0.058;2023-01-16T05:55:21;12;8;
56069;PMS5003;41944;52.078;-0.058;2023-01-16T05:57:48;10;8;
56069;PMS5003;41944;52.078;-0.058;2023-01-16T06:00:15;11;6;
56069;PMS5003;41944;52.078;-0.058;2023-01-16T06:02:44;11;8;
56069;PMS5003;41944;52.078;-0.058;2023-01-16T06:05:10;9;9;
56069;PMS5003;41944;52.078;-0.058;2023-01-16T06:07:37;8;8;
56069;PMS5003;41944;52.078;-0.058;2023-01-16T06:10:05;10;6;
56069;PMS5003;41944;52.078;-0.058;2023-01-16T06:12:33;10;8;
56069;PMS5003;41944;52.078;-0.058;2023-01-16T06:15:00;8;7;
56069;PMS5003;41944;52.078;-0.058;2023-01-16T06:17:27;10;7;
56069;PMS5003;41944;52.078;-0.058;2023-01-16T06:19:54;16;10;
56069;PMS5003;41944;52.078;-0.058;2023-01-16T06:22:21;12;9;
56069;PMS5003;41944;52.078;-0.058;2023-01-16T06:24:48;9;6;
56069;PMS5003;41944;52.078;-0.058;2023-01-16T06:27:15;13;8;
56069;PMS5003;41944;52.078;-0.058;2023-01-16T06:29:42;10;6;
56069;PMS5003;41944;52.078;-0.058;2023-01-16T06:32:09;8;7;
56069;PMS5003;41944;52.078;-0.058;2023-01-16T06:34:36;10;7;
56069;PMS5003;41944;52.078;-0.058;2023-01-16T06:37:03;12;7;
56069;PMS5003;41944;52.078;-0.058;2023-01-16T06:39:30;11;10;
56069;PMS5003;41944;52.078;-0.058;2023-01-16T06:41:57;10;7;
56069;PMS5003;41944;52.078;-0.058;2023-01-16T06:44:24;11;7;
56069;PMS5003;41944;52.078;-0.058;2023-01-16T06:46:51;9;9;
56069;PMS5003;41944;52.078;-0.058;2023-01-16T06:49:18;8;6;
56069;PMS5003;41944;52.078;-0.058;2023-01-16T06:51:44;10;9;
56069;PMS5003;41944;52.078;-0.058;2023-01-16T06:54:11;11;8;
56069;PMS5003;41944;52.078;-0.058;2023-01-16T06:56:38;8;7;
56069;PMS5003;41944;52.078;-0.058;2023-01-16T06:59:05;7;6;
56069;PMS5003;41944;52.078;-0.058;2023-01-16T07:01:32;13;9;
56069;PMS5003;41944;52.078;-0.058;2023-01-16T07:03:59;12;9;
56069;PMS5003;41944;52.078;-0.058;2023-01-16T07:06:26;14;12;
56069;PMS5003;41944;52.078;-0.058;2023-01-16T07:08:54;13;12;
56069;PMS5003;41944;52.078;-0.058;2023-01-16T07:11:21;12;9;
56069;PMS5003;41944;52.078;-0.058;2023-01-16T07:13:48;10;10;
56069;PMS5003;41944;52.078;-0.058;2023-01-16T07:16:15;19;11;
56069;PMS5003;41944;52.078;-0.058;2023-01-16T07:18:43;11;9;
56069;PMS5003;41944;52.078;-0.058;2023-01-16T07:21:11;14;9;
56069;PMS5003;41944;52.078;-0.058;2023-01-16T07:23:40;14;10;
56069;PMS5003;41944;52.078;-0.058;2023-01-16T07:26:10;11;11;
56069;PMS5003;41944;52.078;-0.058;2023-01-16T07:28:40;14;13;
56069;PMS5003;41944;52.078;-0.058;2023-01-16T07:31:07;12;11;
56069;PMS5003;41944;52.078;-0.058;2023-01-16T07:33:35;19;14;
56069;PMS5003;41944;52.078;-0.058;2023-01-16T07:36:02;11;10;
56069;PMS5003;41944;52.078;-0.058;2023-01-16T07:38:30;14;14;
56069;PMS5003;41944;52.078;-0.058;2023-01-16T07:40:57;14;11;
56069;PMS5003;41944;52.078;-0.058;2023-01-16T07:43:24;18;15;
56069;PMS5003;41944;52.078;-0.058;2023-01-16T07:45:51;14;12;
56069;PMS5003;41944;52.078;-0.058;2023-01-16T07:48:18;13;12;
56069;PMS5003;41944;52.078;-0.058;2023-01-16T07:50:49;17;16;
56069;PMS5003;41944;52.078;-0.058;2023-01-16T07:53:16;17;14;
56069;PMS5003;41944;52.078;-0.058;2023-01-16T07:55:43;25;24;
56069;PMS5003;41944;52.078;-0.058;2023-01-16T07:58:11;23;18;
56069;PMS5003;41944;52.078;-0.058;2023-01-16T08:00:38;24;18;
56069;PMS5003;41944;52.078;-0.058;2023-01-16T08:03:05;27;20;
56069;PMS5003;41944;52.078;-0.058;2023-01-16T08:05:32;25;19;
56069;PMS5003;41944;52.078;-0.058;2023-01-16T08:07:59;25;21;
56069;PMS5003;41944;52.078;-0.058;2023-01-16T08:10:27;21;19;
56069;PMS5003;41944;52.078;-0.058;2023-01-16T08:12:55;26;22;
56069;PMS5003;41944;52.078;-0.058;2023-01-16T08:15:23;24;22;
56069;PMS5003;41944;52.078;-0.058;2023-01-16T08:17:50;31;24;
56069;PMS5003;41944;52.078;-0.058;2023-01-16T08:20:16;31;25;
56069;PMS5003;41944;52.078;-0.058;2023-01-16T08:22:44;31;26;
56069;PMS5003;41944;52.078;-0.058;2023-01-16T08:25:11;31;26;
56069;PMS5003;41944;52.078;-0.058;2023-01-16T08:27:39;33;30;
56069;PMS5003;41944;52.078;-0.058;2023-01-16T08:30:08;38;28;
56069;PMS5003;41944;52.078;-0.058;2023-01-16T08:32:35;23;22;
56069;PMS5003;41944;52.078;-0.058;2023-01-16T08:35:02;31;24;
56069;PMS5003;41944;52.078;-0.058;2023-01-16T08:37:30;32;28;
56069;PMS5003;41944;52.078;-0.058;2023-01-16T08:39:57;34;30;
56069;PMS5003;41944;52.078;-0.058;2023-01-16T08:42:24;52;42;
56069;PMS5003;41944;52.078;-0.058;2023-01-16T08:44:52;53;48;
56069;PMS5003;41944;52.078;-0.058;2023-01-16T08:47:20;34;29;
56069;PMS5003;41944;52.078;-0.058;2023-01-16T08:49:49;30;27;
56069;PMS5003;41944;52.078;-0.058;2023-01-16T08:52:17;31;25;
56069;PMS5003;41944;52.078;-0.058;2023-01-16T08:54:44;67;54;
56069;PMS5003;41944;52.078;-0.058;2023-01-16T08:57:11;29;23;
56069;PMS5003;41944;52.078;-0.058;2023-01-16T08:59:38;34;31;
56069;PMS5003;41944;52.078;-0.058;2023-01-16T09:02:05;33;28;
56069;PMS5003;41944;52.078;-0.058;2023-01-16T09:04:35;29;27;
56069;PMS5003;41944;52.078;-0.058;2023-01-16T09:07:02;35;29;
56069;PMS5003;41944;52.078;-0.058;2023-01-16T09:09:29;25;21;
56069;PMS5003;41944;52.078;-0.058;2023-01-16T09:11:57;25;23;
56069;PMS5003;41944;52.078;-0.058;2023-01-16T09:14:24;34;30;
56069;PMS5003;41944;52.078;-0.058;2023-01-16T09:16:51;30;26;
56069;PMS5003;41944;52.078;-0.058;2023-01-16T09:19:18;37;26;
56069;PMS5003;41944;52.078;-0.058;2023-01-16T09:21:45;27;23;
56069;PMS5003;41944;52.078;-0.058;2023-01-16T09:24:12;28;23;
56069;PMS5003;41944;52.078;-0.058;2023-01-16T09:26:39;25;20;
56069;PMS5003;41944;52.078;-0.058;2023-01-16T09:29:06;18;18;
56069;PMS5003;41944;52.078;-0.058;2023-01-16T09:31:33;28;24;
56069;PMS5003;41944;52.078;-0.058;2023-01-16T09:34:00;26;23;
56069;PMS5003;41944;52.078;-0.058;2023-01-16T09:36:28;31;29;
56069;PMS5003;41944;52.078;-0.058;2023-01-16T09:38:55;19;19;
56069;PMS5003;41944;52.078;-0.058;2023-01-16T09:41:22;31;29;
56069;PMS5003;41944;52.078;-0.058;2023-01-16T09:43:51;28;25;
56069;PMS5003;41944;52.078;-0.058;2023-01-16T09:46:19;18;16;
56069;PMS5003;41944;52.078;-0.058;2023-01-16T09:48:50;25;20;
56069;PMS5003;41944;52.078;-0.058;2023-01-16T09:51:21;26;19;
56069;PMS5003;41944;52.078;-0.058;2023-01-16T09:53:52;20;17;
56069;PMS5003;41944;52.078;-0.058;2023-01-16T09:56:24;16;15;
56069;PMS5003;41944;52.078;-0.058;2023-01-16T09:58:59;17;14;
56069;PMS5003;41944;52.078;-0.058;2023-01-16T10:01:39;16;14;
56069;PMS5003;41944;52.078;-0.058;2023-01-16T10:04:13;15;15;
56069;PMS5003;41944;52.078;-0.058;2023-01-16T10:06:47;18;18;
56069;PMS5003;41944;52.078;-0.058;2023-01-16T10:09:27;19;16;
56069;PMS5003;41944;52.078;-0.058;2023-01-16T10:12:01;22;16;
56069;PMS5003;41944;52.078;-0.058;2023-01-16T10:14:35;14;14;
56069;PMS5003;41944;52.078;-0.058;2023-01-16T10:17:16;17;15;
56069;PMS5003;41944;52.078;-0.058;2023-01-16T10:19:55;19;18;
56069;PMS5003;41944;52.078;-0.058;2023-01-16T10:22:38;22;20;
56069;PMS5003;41944;52.078;-0.058;2023-01-16T10:25:19;16;15;
56069;PMS5003;41944;52.078;-0.058;2023-01-16T10:27:54;17;15;
56069;PMS5003;41944;52.078;-0.058;2023-01-16T10:30:28;22;19;
56069;PMS5003;41944;52.078;-0.058;2023-01-16T10:33:00;24;18;
56069;PMS5003;41944;52.078;-0.058;2023-01-16T10:35:31;20;18;
56069;PMS5003;41944;52.078;-0.058;2023-01-16T10:38:09;26;24;
56069;PMS5003;41944;52.078;-0.058;2023-01-16T10:40:47;25;23;
56069;PMS5003;41944;52.078;-0.058;2023-01-16T10:43:17;26;22;
56069;PMS5003;41944;52.078;-0.058;2023-01-16T10:45:53;28;24;
56069;PMS5003;41944;52.078;-0.058;2023-01-16T10:48:26;32;28;
56069;PMS5003;41944;52.078;-0.058;2023-01-16T10:50:56;38;33;
56069;PMS5003;41944;52.078;-0.058;2023-01-16T10:53:24;26;23;
56069;PMS5003;41944;52.078;-0.058;2023-01-16T10:55:52;34;27;
56069;PMS5003;41944;52.078;-0.058;2023-01-16T10:58:23;36;34;
56069;PMS5003;41944;52.078;-0.058;2023-01-16T11:00:54;34;27;
56069;PMS5003;41944;52.078;-0.058;2023-01-16T11:03:28;34;31;
56069;PMS5003;41944;52.078;-0.058;2023-01-16T11:06:08;34;30;
56069;PMS5003;41944;52.078;-0.058;2023-01-16T11:08:38;38;29;
56069;PMS5003;41944;52.078;-0.058;2023-01-16T11:11:07;33;29;
56069;PMS5003;41944;52.078;-0.058;2023-01-16T11:13:37;34;29;
56069;PMS5003;41944;52.078;-0.058;2023-01-16T11:16:09;26;24;
56069;PMS5003;41944;52.078;-0.058;2023-01-16T11:18:45;30;28;
56069;PMS5003;41944;52.078;-0.058;2023-01-16T11:21:14;31;26;
56069;PMS5003;41944;52.078;-0.058;2023-01-16T11:23:44;32;27;
56069;PMS5003;41944;52.078;-0.058;2023-01-16T11:26:15;25;24;
56069;PMS5003;41944;52.078;-0.058;2023-01-16T11:28:43;28;24;
56069;PMS5003;41944;52.078;-0.058;2023-01-16T11:31:14;23;19;
56069;PMS5003;41944;52.078;-0.058;2023-01-16T11:33:46;31;24;
56069;PMS5003;41944;52.078;-0.058;2023-01-16T11:36:17;26;23;
56069;PMS5003;41944;52.078;-0.058;2023-01-16T11:38:45;29;21;
56069;PMS5003;41944;52.078;-0.058;2023-01-16T11:41:17;25;23;
56069;PMS5003;41944;52.078;-0.058;2023-01-16T11:43:45;29;21;
56069;PMS5003;41944;52.078;-0.058;2023-01-16T11:46:31;24;18;
56069;PMS5003;41944;52.078;-0.058;2023-01-16T11:49:04;19;18;
56069;PMS5003;41944;52.078;-0.058;2023-01-16T11:51:40;20;19;
56069;PMS5003;41944;52.078;-0.058;2023-01-16T11:54:11;24;18;
56069;PMS5003;41944;52.078;-0.058;2023-01-16T11:56:44;18;18;
56069;PMS5003;41944;52.078;-0.058;2023-01-16T11:59:32;21;19;
56069;PMS5003;41944;52.078;-0.058;2023-01-16T12:02:17;25;19;
56069;PMS5003;41944;52.078;-0.058;2023-01-16T12:04:56;27;19;
56069;PMS5003;41944;52.078;-0.058;2023-01-16T12:07:38;24;19;
56069;PMS5003;41944;52.078;-0.058;2023-01-16T12:10:15;21;16;
56069;PMS5003;41944;52.078;-0.058;2023-01-16T12:12:51;19;17;
56069;PMS5003;41944;52.078;-0.058;2023-01-16T12:15:26;15;13;
56069;PMS5003;41944;52.078;-0.058;2023-01-16T12:18:05;12;12;
56069;PMS5003;41944;52.078;-0.058;2023-01-16T12:20:47;15;13;
56069;PMS5003;41944;52.078;-0.058;2023-01-16T12:23:27;16;13;
56069;PMS5003;41944;52.078;-0.058;2023-01-16T12:26:06;16;12;
56069;PMS5003;41944;52.078;-0.058;2023-01-16T12:28:42;13;13;
56069;PMS5003;41944;52.078;-0.058;2023-01-16T12:31:21;12;12;
56069;PMS5003;41944;52.078;-0.058;2023-01-16T12:34:00;14;14;
56069;PMS5003;41944;52.078;-0.058;2023-01-16T12:37:15;17;13;
56069;PMS5003;41944;52.078;-0.058;2023-01-16T12:39:55;19;13;
56069;PMS5003;41944;52.078;-0.058;2023-01-16T12:42:35;14;14;
56069;PMS5003;41944;52.078;-0.058;2023-01-16T12:45:17;21;19;
56069;PMS5003;41944;52.078;-0.058;2023-01-16T12:47:58;16;15;
56069;PMS5003;41944;52.078;-0.058;2023-01-16T12:50:41;17;15;
56069;PMS5003;41944;52.078;-0.058;2023-01-16T12:53:24;15;12;
56069;PMS5003;41944;52.078;-0.058;2023-01-16T12:56:06;19;16;
56069;PMS5003;41944;52.078;-0.058;2023-01-16T12:58:49;19;15;
56069;PMS5003;41944;52.078;-0.058;2023-01-16T13:01:22;13;10;
56069;PMS5003;41944;52.078;-0.058;2023-01-16T13:03:54;16;9;
56069;PMS5003;41944;52.078;-0.058;2023-01-16T13:06:29;12;11;
56069;PMS5003;41944;52.078;-0.058;2023-01-16T13:09:01;19;14;
56069;PMS5003;41944;52.078;-0.058;2023-01-16T13:11:32;17;14;
56069;PMS5003;41944;52.078;-0.058;2023-01-16T13:14:05;18;14;
56069;PMS5003;41944;52.078;-0.058;2023-01-16T13:16:37;13;12;
56069;PMS5003;41944;52.078;-0.058;2023-01-16T13:19:10;10;10;
56069;PMS5003;41944;52.078;-0.058;2023-01-16T13:21:57;16;10;
56069;PMS5003;41944;52.078;-0.058;2023-01-16T13:24:29;10;9;
56069;PMS5003;41944;52.078;-0.058;2023-01-16T13:27:00;10;8;
56069;PMS5003;41944;52.078;-0.058;2023-01-16T13:29:31;9;9;
56069;PMS5003;41944;52.078;-0.058;2023-01-16T13:32:04;14;11;
56069;PMS5003;41944;52.078;-0.058;2023-01-16T13:34:35;16;11;
56069;PMS5003;41944;52.078;-0.058;2023-01-16T13:37:12;10;9;
56069;PMS5003;41944;52.078;-0.058;2023-01-16T13:39:56;9;8;
56069;PMS5003;41944;52.078;-0.058;2023-01-16T13:42:34;9;8;
56069;PMS5003;41944;52.078;-0.058;2023-01-16T13:45:07;7;7;
56069;PMS5003;41944;52.078;-0.058;2023-01-16T13:47:43;4;4;
56069;PMS5003;41944;52.078;-0.058;2023-01-16T13:50:15;6;6;
56069;PMS5003;41944;52.078;-0.058;2023-01-16T13:52:45;9;5;
56069;PMS5003;41944;52.078;-0.058;2023-01-16T13:55:20;5;5;
56069;PMS5003;41944;52.078;-0.058;2023-01-16T13:57:53;7;6;
56069;PMS5003;41944;52.078;-0.058;2023-01-16T14:00:22;7;6;
56069;PMS5003;41944;52.078;-0.058;2023-01-16T14:03:01;5;5;
56069;PMS5003;41944;52.078;-0.058;2023-01-16T14:05:42;6;6;
56069;PMS5003;41944;52.078;-0.058;2023-01-16T14:08:18;7;6;
56069;PMS5003;41944;52.078;-0.058;2023-01-16T14:11:24;6;6;
56069;PMS5003;41944;52.078;-0.058;2023-01-16T14:14:19;5;5;
56069;PMS5003;41944;52.078;-0.058;2023-01-16T14:16:59;7;5;
56069;PMS5003;41944;52.078;-0.058;2023-01-16T14:19:29;5;5;
56069;PMS5003;41944;52.078;-0.058;2023-01-16T14:22:02;7;7;
56069;PMS5003;41944;52.078;-0.058;2023-01-16T14:24:36;7;7;
56069;PMS5003;41944;52.078;-0.058;2023-01-16T14:27:09;8;8;
56069;PMS5003;41944;52.078;-0.058;2023-01-16T14:29:44;8;7;
56069;PMS5003;41944;52.078;-0.058;2023-01-16T14:32:15;8;6;
56069;PMS5003;41944;52.078;-0.058;2023-01-16T14:34:47;7;7;
56069;PMS5003;41944;52.078;-0.058;2023-01-16T14:37:21;10;8;
56069;PMS5003;41944;52.078;-0.058;2023-01-16T14:39:52;7;7;
56069;PMS5003;41944;52.078;-0.058;2023-01-16T14:42:26;12;10;
56069;PMS5003;41944;52.078;-0.058;2023-01-16T14:44:58;10;10;
56069;PMS5003;41944;52.078;-0.058;2023-01-16T14:47:31;10;10;
56069;PMS5003;41944;52.078;-0.058;2023-01-16T14:50:04;9;9;
56069;PMS5003;41944;52.078;-0.058;2023-01-16T14:52:36;12;10;
56069;PMS5003;41944;52.078;-0.058;2023-01-16T14:55:10;9;7;
56069;PMS5003;41944;52.078;-0.058;2023-01-16T14:57:39;9;8;
56069;PMS5003;41944;52.078;-0.058;2023-01-16T15:00:09;7;7;
56069;PMS5003;41944;52.078;-0.058;2023-01-16T15:02:41;9;8;
56069;PMS5003;41944;52.078;-0.058;2023-01-16T15:05:14;6;6;
56069;PMS5003;41944;52.078;-0.058;2023-01-16T15:07:45;4;4;
56069;PMS5003;41944;52.078;-0.058;2023-01-16T15:10:17;5;5;
56069;PMS5003;41944;52.078;-0.058;2023-01-16T15:12:47;3;3;
56069;PMS5003;41944;52.078;-0.058;2023-01-16T15:15:19;4;4;
56069;PMS5003;41944;52.078;-0.058;2023-01-16T15:17:48;5;4;
56069;PMS5003;41944;52.078;-0.058;2023-01-16T15:20:18;7;5;
56069;PMS5003;41944;52.078;-0.058;2023-01-16T15:22:49;7;6;
56069;PMS5003;41944;52.078;-0.058;2023-01-16T15:25:23;5;5;
56069;PMS5003;41944;52.078;-0.058;2023-01-16T15:28:02;6;6;
56069;PMS5003;41944;52.078;-0.058;2023-01-16T15:30:36;8;8;
56069;PMS5003;41944;52.078;-0.058;2023-01-16T15:33:09;8;7;
56069;PMS5003;41944;52.078;-0.058;2023-01-16T15:35:54;6;6;
56069;PMS5003;41944;52.078;-0.058;2023-01-16T15:38:23;6;6;
56069;PMS5003;41944;52.078;-0.058;2023-01-16T15:40:50;5;5;
56069;PMS5003;41944;52.078;-0.058;2023-01-16T15:43:18;5;4;
56069;PMS5003;41944;52.078;-0.058;2023-01-16T15:45:47;4;3;
56069;PMS5003;41944;52.078;-0.058;2023-01-16T15:48:26;3;3;
56069;PMS5003;41944;52.078;-0.058;2023-01-16T15:51:07;3;2;
56069;PMS5003;41944;52.078;-0.058;2023-01-16T15:53:36;5;5;
56069;PMS5003;41944;52.078;-0.058;2023-01-16T15:56:06;3;3;
56069;PMS5003;41944;52.078;-0.058;2023-01-16T15:58:36;10;7;
56069;PMS5003;41944;52.078;-0.058;2023-01-16T16:01:07;3;3;
56069;PMS5003;41944;52.078;-0.058;2023-01-16T16:03:37;3;3;
56069;PMS5003;41944;52.078;-0.058;2023-01-16T16:06:08;6;4;
56069;PMS5003;41944;52.078;-0.058;2023-01-16T16:08:38;5;5;
56069;PMS5003;41944;52.078;-0.058;2023-01-16T16:11:08;3;3;
56069;PMS5003;41944;52.078;-0.058;2023-01-16T16:13:41;3;3;
56069;PMS5003;41944;52.078;-0.058;2023-01-16T16:16:17;3;3;
56069;PMS5003;41944;52.078;-0.058;2023-01-16T16:18:54;2;2;
56069;PMS5003;41944;52.078;-0.058;2023-01-16T16:21:22;5;3;
56069;PMS5003;41944;52.078;-0.058;2023-01-16T16:23:53;2;2;
56069;PMS5003;41944;52.078;-0.058;2023-01-16T16:26:23;5;4;
56069;PMS5003;41944;52.078;-0.058;2023-01-16T16:28:51;6;6;
56069;PMS5003;41944;52.078;-0.058;2023-01-16T16:31:20;4;4;
56069;PMS5003;41944;52.078;-0.058;2023-01-16T16:33:52;4;4;
56069;PMS5003;41944;52.078;-0.058;2023-01-16T16:36:23;6;4;
56069;PMS5003;41944;52.078;-0.058;2023-01-16T16:38:50;5;5;
56069;PMS5003;41944;52.078;-0.058;2023-01-16T16:41:51;6;6;
56069;PMS5003;41944;52.078;-0.058;2023-01-16T16:44:21;7;6;